Terminal Aerodrome Forecast
Issued by NWS Jackson, MS

Home | Current Version | Previous Version | Text Only | Print | Product List | Glossary On
Versions: 1 2 3 4 5 6 7 8 9 10 11 12 13 14 15 16 17 18
000
FTUS44 KJAN 221722
TAFMEI
TAF
KMEI 221722Z 2218/2318 17013KT P6SM SCT030
     FM222000 18012KT P6SM BKN050
     FM230600 19004KT P6SM OVC015
     FM231000 18003KT 4SM BR OVC005
     FM231500 17005KT P6SM OVC015=

USA.gov is the U.S. government's official web portal to all federal, state and local government web resources and services.